sensor_id;sensor_type;location;lat;lon;timestamp;P1;durP1;ratioP1;P2;durP2;ratioP2
21519;SDS011;10921;53.614;9.882;2024-03-22T00:01:14;48.42;;;31.08;;
21519;SDS011;10921;53.614;9.882;2024-03-22T00:03:39;40.13;;;31.05;;
21519;SDS011;10921;53.614;9.882;2024-03-22T00:06:05;45.22;;;30.80;;
21519;SDS011;10921;53.614;9.882;2024-03-22T00:08:30;45.55;;;31.33;;
21519;SDS011;10921;53.614;9.882;2024-03-22T00:10:56;47.20;;;30.60;;
21519;SDS011;10921;53.614;9.882;2024-03-22T00:13:21;44.75;;;30.77;;
21519;SDS011;10921;53.614;9.882;2024-03-22T00:15:47;49.60;;;32.13;;
21519;SDS011;10921;53.614;9.882;2024-03-22T00:18:12;42.45;;;30.83;;
21519;SDS011;10921;53.614;9.882;2024-03-22T00:20:38;48.20;;;32.88;;
21519;SDS011;10921;53.614;9.882;2024-03-22T00:23:03;43.63;;;32.13;;
21519;SDS011;10921;53.614;9.882;2024-03-22T00:25:29;46.70;;;33.38;;
21519;SDS011;10921;53.614;9.882;2024-03-22T00:27:55;46.65;;;31.10;;
21519;SDS011;10921;53.614;9.882;2024-03-22T00:30:21;46.80;;;32.30;;
21519;SDS011;10921;53.614;9.882;2024-03-22T00:32:47;44.25;;;32.92;;
21519;SDS011;10921;53.614;9.882;2024-03-22T00:35:12;53.53;;;34.15;;
21519;SDS011;10921;53.614;9.882;2024-03-22T00:37:38;41.15;;;31.50;;
21519;SDS011;10921;53.614;9.882;2024-03-22T00:40:04;48.72;;;32.92;;
21519;SDS011;10921;53.614;9.882;2024-03-22T00:42:30;47.60;;;32.75;;
21519;SDS011;10921;53.614;9.882;2024-03-22T00:44:56;48.92;;;32.25;;
21519;SDS011;10921;53.614;9.882;2024-03-22T00:47:23;48.75;;;30.95;;
21519;SDS011;10921;53.614;9.882;2024-03-22T00:49:48;46.78;;;31.27;;
21519;SDS011;10921;53.614;9.882;2024-03-22T00:52:14;46.50;;;31.13;;
21519;SDS011;10921;53.614;9.882;2024-03-22T00:54:40;47.20;;;31.30;;
21519;SDS011;10921;53.614;9.882;2024-03-22T00:57:06;45.78;;;32.13;;
21519;SDS011;10921;53.614;9.882;2024-03-22T00:59:32;42.53;;;32.22;;
21519;SDS011;10921;53.614;9.882;2024-03-22T01:01:57;43.92;;;31.38;;
21519;SDS011;10921;53.614;9.882;2024-03-22T01:04:23;42.55;;;32.20;;
21519;SDS011;10921;53.614;9.882;2024-03-22T01:06:49;47.10;;;32.70;;
21519;SDS011;10921;53.614;9.882;2024-03-22T01:09:14;50.03;;;35.03;;
21519;SDS011;10921;53.614;9.882;2024-03-22T01:11:40;43.85;;;33.08;;
21519;SDS011;10921;53.614;9.882;2024-03-22T01:14:05;43.15;;;30.77;;
21519;SDS011;10921;53.614;9.882;2024-03-22T01:16:31;46.60;;;32.33;;
21519;SDS011;10921;53.614;9.882;2024-03-22T01:18:56;49.45;;;34.47;;
21519;SDS011;10921;53.614;9.882;2024-03-22T01:21:22;54.20;;;34.10;;
21519;SDS011;10921;53.614;9.882;2024-03-22T01:23:53;45.83;;;33.85;;
21519;SDS011;10921;53.614;9.882;2024-03-22T01:26:19;44.97;;;33.53;;
21519;SDS011;10921;53.614;9.882;2024-03-22T01:28:44;48.45;;;34.35;;
21519;SDS011;10921;53.614;9.882;2024-03-22T01:31:10;45.95;;;33.65;;
21519;SDS011;10921;53.614;9.882;2024-03-22T01:33:35;45.03;;;32.55;;
21519;SDS011;10921;53.614;9.882;2024-03-22T01:36:01;42.67;;;34.17;;
21519;SDS011;10921;53.614;9.882;2024-03-22T01:38:27;48.50;;;34.15;;
21519;SDS011;10921;53.614;9.882;2024-03-22T01:40:53;50.17;;;34.25;;
21519;SDS011;10921;53.614;9.882;2024-03-22T01:43:18;46.05;;;33.47;;
21519;SDS011;10921;53.614;9.882;2024-03-22T01:45:44;48.78;;;36.63;;
21519;SDS011;10921;53.614;9.882;2024-03-22T01:48:10;51.80;;;36.90;;
21519;SDS011;10921;53.614;9.882;2024-03-22T01:50:36;51.55;;;35.67;;
21519;SDS011;10921;53.614;9.882;2024-03-22T01:53:02;48.35;;;34.33;;
21519;SDS011;10921;53.614;9.882;2024-03-22T01:55:28;50.85;;;34.72;;
21519;SDS011;10921;53.614;9.882;2024-03-22T01:57:54;53.25;;;34.83;;
21519;SDS011;10921;53.614;9.882;2024-03-22T02:00:21;47.30;;;34.95;;
21519;SDS011;10921;53.614;9.882;2024-03-22T02:02:46;43.80;;;31.52;;
21519;SDS011;10921;53.614;9.882;2024-03-22T02:05:12;45.38;;;35.15;;
21519;SDS011;10921;53.614;9.882;2024-03-22T02:07:39;50.45;;;35.70;;
21519;SDS011;10921;53.614;9.882;2024-03-22T02:10:04;49.10;;;37.28;;
21519;SDS011;10921;53.614;9.882;2024-03-22T02:12:31;55.30;;;37.30;;
21519;SDS011;10921;53.614;9.882;2024-03-22T02:14:59;52.30;;;37.33;;
21519;SDS011;10921;53.614;9.882;2024-03-22T02:17:25;51.40;;;39.50;;
21519;SDS011;10921;53.614;9.882;2024-03-22T02:19:50;51.47;;;37.15;;
21519;SDS011;10921;53.614;9.882;2024-03-22T02:22:16;60.30;;;38.50;;
21519;SDS011;10921;53.614;9.882;2024-03-22T02:24:41;59.80;;;39.67;;
21519;SDS011;10921;53.614;9.882;2024-03-22T02:27:07;58.83;;;40.83;;
21519;SDS011;10921;53.614;9.882;2024-03-22T02:29:32;58.38;;;40.78;;
21519;SDS011;10921;53.614;9.882;2024-03-22T02:31:58;56.30;;;39.08;;
21519;SDS011;10921;53.614;9.882;2024-03-22T02:34:24;52.72;;;37.88;;
21519;SDS011;10921;53.614;9.882;2024-03-22T02:36:49;59.28;;;41.20;;
21519;SDS011;10921;53.614;9.882;2024-03-22T02:39:15;57.05;;;40.92;;
21519;SDS011;10921;53.614;9.882;2024-03-22T02:41:40;55.75;;;40.60;;
21519;SDS011;10921;53.614;9.882;2024-03-22T02:44:06;57.75;;;40.90;;
21519;SDS011;10921;53.614;9.882;2024-03-22T02:46:31;61.45;;;41.33;;
21519;SDS011;10921;53.614;9.882;2024-03-22T02:48:57;61.10;;;43.92;;
21519;SDS011;10921;53.614;9.882;2024-03-22T02:51:22;59.15;;;43.50;;
21519;SDS011;10921;53.614;9.882;2024-03-22T02:53:48;58.55;;;41.00;;
21519;SDS011;10921;53.614;9.882;2024-03-22T02:56:13;61.90;;;44.95;;
21519;SDS011;10921;53.614;9.882;2024-03-22T02:58:39;62.38;;;43.70;;
21519;SDS011;10921;53.614;9.882;2024-03-22T03:01:05;67.45;;;43.58;;
21519;SDS011;10921;53.614;9.882;2024-03-22T03:03:31;66.13;;;44.20;;
21519;SDS011;10921;53.614;9.882;2024-03-22T03:05:56;62.42;;;44.92;;
21519;SDS011;10921;53.614;9.882;2024-03-22T03:08:22;70.57;;;47.03;;
21519;SDS011;10921;53.614;9.882;2024-03-22T03:10:48;67.20;;;47.00;;
21519;SDS011;10921;53.614;9.882;2024-03-22T03:13:13;70.63;;;45.67;;
21519;SDS011;10921;53.614;9.882;2024-03-22T03:15:39;76.68;;;48.67;;
21519;SDS011;10921;53.614;9.882;2024-03-22T03:18:04;68.70;;;48.30;;
21519;SDS011;10921;53.614;9.882;2024-03-22T03:20:30;75.28;;;50.63;;
21519;SDS011;10921;53.614;9.882;2024-03-22T03:22:55;72.22;;;48.15;;
21519;SDS011;10921;53.614;9.882;2024-03-22T03:25:25;69.70;;;49.10;;
21519;SDS011;10921;53.614;9.882;2024-03-22T03:27:51;69.28;;;49.88;;
21519;SDS011;10921;53.614;9.882;2024-03-22T03:30:17;71.72;;;51.83;;
21519;SDS011;10921;53.614;9.882;2024-03-22T03:32:43;71.97;;;51.10;;
21519;SDS011;10921;53.614;9.882;2024-03-22T03:35:08;83.70;;;54.63;;
21519;SDS011;10921;53.614;9.882;2024-03-22T03:37:34;75.10;;;51.00;;
21519;SDS011;10921;53.614;9.882;2024-03-22T03:40:00;73.28;;;51.85;;
21519;SDS011;10921;53.614;9.882;2024-03-22T03:42:25;78.30;;;53.67;;
21519;SDS011;10921;53.614;9.882;2024-03-22T03:44:51;82.15;;;52.88;;
21519;SDS011;10921;53.614;9.882;2024-03-22T03:47:16;78.18;;;55.75;;
21519;SDS011;10921;53.614;9.882;2024-03-22T03:49:42;78.97;;;53.97;;
21519;SDS011;10921;53.614;9.882;2024-03-22T03:52:10;79.35;;;54.83;;
21519;SDS011;10921;53.614;9.882;2024-03-22T03:54:36;83.80;;;58.03;;
21519;SDS011;10921;53.614;9.882;2024-03-22T03:57:01;77.82;;;55.05;;
21519;SDS011;10921;53.614;9.882;2024-03-22T03:59:27;78.50;;;55.88;;
21519;SDS011;10921;53.614;9.882;2024-03-22T04:01:52;83.22;;;57.92;;
21519;SDS011;10921;53.614;9.882;2024-03-22T04:04:18;78.57;;;54.05;;
21519;SDS011;10921;53.614;9.882;2024-03-22T04:06:44;78.30;;;54.78;;
21519;SDS011;10921;53.614;9.882;2024-03-22T04:09:10;79.07;;;55.95;;
21519;SDS011;10921;53.614;9.882;2024-03-22T04:11:35;79.93;;;55.15;;
21519;SDS011;10921;53.614;9.882;2024-03-22T04:14:02;83.28;;;58.38;;
21519;SDS011;10921;53.614;9.882;2024-03-22T04:16:29;90.38;;;60.45;;
21519;SDS011;10921;53.614;9.882;2024-03-22T04:18:54;90.80;;;60.22;;
21519;SDS011;10921;53.614;9.882;2024-03-22T04:21:20;91.05;;;61.63;;
21519;SDS011;10921;53.614;9.882;2024-03-22T04:23:45;89.30;;;62.45;;
21519;SDS011;10921;53.614;9.882;2024-03-22T04:26:11;84.85;;;59.70;;
21519;SDS011;10921;53.614;9.882;2024-03-22T04:28:37;88.90;;;61.13;;
21519;SDS011;10921;53.614;9.882;2024-03-22T04:31:04;92.07;;;62.17;;
21519;SDS011;10921;53.614;9.882;2024-03-22T04:33:34;94.07;;;61.80;;
21519;SDS011;10921;53.614;9.882;2024-03-22T04:36:01;87.80;;;61.33;;
21519;SDS011;10921;53.614;9.882;2024-03-22T04:38:28;92.07;;;62.15;;
21519;SDS011;10921;53.614;9.882;2024-03-22T04:40:54;95.93;;;64.85;;
21519;SDS011;10921;53.614;9.882;2024-03-22T04:43:21;93.80;;;63.30;;
21519;SDS011;10921;53.614;9.882;2024-03-22T04:45:48;94.05;;;63.85;;
21519;SDS011;10921;53.614;9.882;2024-03-22T04:48:14;95.20;;;61.67;;
21519;SDS011;10921;53.614;9.882;2024-03-22T04:50:40;94.20;;;63.47;;
21519;SDS011;10921;53.614;9.882;2024-03-22T04:53:06;89.38;;;61.25;;
21519;SDS011;10921;53.614;9.882;2024-03-22T04:55:32;97.63;;;66.07;;
21519;SDS011;10921;53.614;9.882;2024-03-22T04:57:58;94.82;;;63.25;;
21519;SDS011;10921;53.614;9.882;2024-03-22T05:00:24;96.80;;;65.57;;
21519;SDS011;10921;53.614;9.882;2024-03-22T05:02:52;95.93;;;62.70;;
21519;SDS011;10921;53.614;9.882;2024-03-22T05:05:18;98.53;;;64.68;;
21519;SDS011;10921;53.614;9.882;2024-03-22T05:07:44;94.55;;;65.25;;
21519;SDS011;10921;53.614;9.882;2024-03-22T05:10:09;98.90;;;63.38;;
21519;SDS011;10921;53.614;9.882;2024-03-22T05:12:35;95.43;;;64.38;;
21519;SDS011;10921;53.614;9.882;2024-03-22T05:15:05;100.50;;;69.05;;
21519;SDS011;10921;53.614;9.882;2024-03-22T05:17:31;98.22;;;63.50;;
21519;SDS011;10921;53.614;9.882;2024-03-22T05:20:00;102.38;;;66.47;;
21519;SDS011;10921;53.614;9.882;2024-03-22T05:22:27;97.28;;;62.58;;
21519;SDS011;10921;53.614;9.882;2024-03-22T05:24:53;104.97;;;65.07;;
21519;SDS011;10921;53.614;9.882;2024-03-22T05:27:18;101.90;;;63.40;;
21519;SDS011;10921;53.614;9.882;2024-03-22T05:29:44;100.32;;;62.83;;
21519;SDS011;10921;53.614;9.882;2024-03-22T05:32:12;97.25;;;63.08;;
21519;SDS011;10921;53.614;9.882;2024-03-22T05:34:38;97.88;;;62.97;;
21519;SDS011;10921;53.614;9.882;2024-03-22T05:37:04;98.30;;;62.05;;
21519;SDS011;10921;53.614;9.882;2024-03-22T05:39:29;96.32;;;62.65;;
21519;SDS011;10921;53.614;9.882;2024-03-22T05:41:55;99.07;;;62.08;;
21519;SDS011;10921;53.614;9.882;2024-03-22T05:44:21;101.70;;;64.00;;
21519;SDS011;10921;53.614;9.882;2024-03-22T05:46:47;103.68;;;65.18;;
21519;SDS011;10921;53.614;9.882;2024-03-22T05:49:13;100.90;;;64.35;;
21519;SDS011;10921;53.614;9.882;2024-03-22T05:51:39;96.07;;;64.88;;
21519;SDS011;10921;53.614;9.882;2024-03-22T05:54:04;103.25;;;64.20;;
21519;SDS011;10921;53.614;9.882;2024-03-22T05:56:30;115.30;;;67.00;;
21519;SDS011;10921;53.614;9.882;2024-03-22T05:58:55;102.05;;;65.40;;
21519;SDS011;10921;53.614;9.882;2024-03-22T06:01:21;105.80;;;66.05;;
21519;SDS011;10921;53.614;9.882;2024-03-22T06:03:46;108.63;;;65.78;;
21519;SDS011;10921;53.614;9.882;2024-03-22T06:06:12;103.75;;;65.93;;
21519;SDS011;10921;53.614;9.882;2024-03-22T06:08:38;108.43;;;68.25;;
21519;SDS011;10921;53.614;9.882;2024-03-22T06:11:08;108.63;;;68.90;;
21519;SDS011;10921;53.614;9.882;2024-03-22T06:13:33;104.90;;;65.97;;
21519;SDS011;10921;53.614;9.882;2024-03-22T06:16:00;103.53;;;65.25;;
21519;SDS011;10921;53.614;9.882;2024-03-22T06:18:25;106.07;;;66.10;;
21519;SDS011;10921;53.614;9.882;2024-03-22T06:20:51;111.88;;;67.93;;
21519;SDS011;10921;53.614;9.882;2024-03-22T06:23:19;106.15;;;65.18;;
21519;SDS011;10921;53.614;9.882;2024-03-22T06:25:51;109.22;;;66.45;;
21519;SDS011;10921;53.614;9.882;2024-03-22T06:28:17;108.82;;;66.93;;
21519;SDS011;10921;53.614;9.882;2024-03-22T06:30:43;107.65;;;68.28;;
21519;SDS011;10921;53.614;9.882;2024-03-22T06:33:09;107.03;;;67.43;;
21519;SDS011;10921;53.614;9.882;2024-03-22T06:35:34;108.32;;;68.45;;
21519;SDS011;10921;53.614;9.882;2024-03-22T06:38:00;103.30;;;66.35;;
21519;SDS011;10921;53.614;9.882;2024-03-22T06:40:28;110.07;;;67.80;;
21519;SDS011;10921;53.614;9.882;2024-03-22T06:42:54;115.35;;;69.05;;
21519;SDS011;10921;53.614;9.882;2024-03-22T06:45:19;110.85;;;68.85;;
21519;SDS011;10921;53.614;9.882;2024-03-22T06:47:45;114.38;;;69.35;;
21519;SDS011;10921;53.614;9.882;2024-03-22T06:50:10;106.35;;;66.65;;
21519;SDS011;10921;53.614;9.882;2024-03-22T06:52:36;102.00;;;64.85;;
21519;SDS011;10921;53.614;9.882;2024-03-22T06:55:02;107.15;;;66.70;;
21519;SDS011;10921;53.614;9.882;2024-03-22T06:57:28;115.95;;;68.72;;
21519;SDS011;10921;53.614;9.882;2024-03-22T06:59:54;109.63;;;67.32;;
21519;SDS011;10921;53.614;9.882;2024-03-22T07:02:19;112.45;;;69.47;;
21519;SDS011;10921;53.614;9.882;2024-03-22T07:04:45;110.40;;;66.32;;
21519;SDS011;10921;53.614;9.882;2024-03-22T07:07:11;111.70;;;68.03;;
21519;SDS011;10921;53.614;9.882;2024-03-22T07:09:37;109.38;;;67.05;;
21519;SDS011;10921;53.614;9.882;2024-03-22T07:12:02;107.68;;;68.63;;
21519;SDS011;10921;53.614;9.882;2024-03-22T07:14:28;113.80;;;69.63;;
21519;SDS011;10921;53.614;9.882;2024-03-22T07:16:54;110.30;;;68.43;;
21519;SDS011;10921;53.614;9.882;2024-03-22T07:19:20;109.82;;;69.40;;
21519;SDS011;10921;53.614;9.882;2024-03-22T07:21:46;105.70;;;65.18;;
21519;SDS011;10921;53.614;9.882;2024-03-22T07:24:12;108.75;;;67.57;;
21519;SDS011;10921;53.614;9.882;2024-03-22T07:26:38;107.20;;;66.05;;
21519;SDS011;10921;53.614;9.882;2024-03-22T07:29:04;106.80;;;66.07;;
21519;SDS011;10921;53.614;9.882;2024-03-22T07:31:29;107.85;;;65.22;;
21519;SDS011;10921;53.614;9.882;2024-03-22T07:33:55;108.50;;;66.40;;
21519;SDS011;10921;53.614;9.882;2024-03-22T07:36:21;113.88;;;68.82;;
21519;SDS011;10921;53.614;9.882;2024-03-22T07:38:46;103.75;;;65.05;;
21519;SDS011;10921;53.614;9.882;2024-03-22T07:41:14;107.07;;;65.80;;
21519;SDS011;10921;53.614;9.882;2024-03-22T07:43:40;109.32;;;67.85;;
21519;SDS011;10921;53.614;9.882;2024-03-22T07:46:06;112.55;;;68.07;;
21519;SDS011;10921;53.614;9.882;2024-03-22T07:48:31;114.15;;;71.38;;
21519;SDS011;10921;53.614;9.882;2024-03-22T07:50:57;111.72;;;71.72;;
21519;SDS011;10921;53.614;9.882;2024-03-22T07:53:23;112.45;;;70.68;;
21519;SDS011;10921;53.614;9.882;2024-03-22T07:55:49;112.00;;;69.22;;
21519;SDS011;10921;53.614;9.882;2024-03-22T07:58:15;113.45;;;71.47;;
21519;SDS011;10921;53.614;9.882;2024-03-22T08:00:41;121.35;;;70.95;;
21519;SDS011;10921;53.614;9.882;2024-03-22T08:03:06;118.72;;;72.43;;
21519;SDS011;10921;53.614;9.882;2024-03-22T08:05:33;111.32;;;68.47;;
21519;SDS011;10921;53.614;9.882;2024-03-22T08:07:58;115.10;;;69.97;;
21519;SDS011;10921;53.614;9.882;2024-03-22T08:10:24;119.60;;;72.90;;
21519;SDS011;10921;53.614;9.882;2024-03-22T08:12:49;122.10;;;74.45;;
21519;SDS011;10921;53.614;9.882;2024-03-22T08:15:15;131.25;;;77.60;;
21519;SDS011;10921;53.614;9.882;2024-03-22T08:17:41;127.28;;;77.60;;
21519;SDS011;10921;53.614;9.882;2024-03-22T08:20:06;131.65;;;80.00;;
21519;SDS011;10921;53.614;9.882;2024-03-22T08:22:32;132.05;;;78.75;;
21519;SDS011;10921;53.614;9.882;2024-03-22T08:24:58;128.10;;;79.50;;
21519;SDS011;10921;53.614;9.882;2024-03-22T08:27:23;130.93;;;80.30;;
21519;SDS011;10921;53.614;9.882;2024-03-22T08:29:49;135.60;;;80.78;;
21519;SDS011;10921;53.614;9.882;2024-03-22T08:32:15;143.38;;;78.88;;
21519;SDS011;10921;53.614;9.882;2024-03-22T08:34:41;130.32;;;77.88;;
21519;SDS011;10921;53.614;9.882;2024-03-22T08:37:06;134.88;;;79.28;;
21519;SDS011;10921;53.614;9.882;2024-03-22T08:39:32;133.68;;;76.68;;
21519;SDS011;10921;53.614;9.882;2024-03-22T08:41:58;133.90;;;79.07;;
21519;SDS011;10921;53.614;9.882;2024-03-22T08:44:23;133.00;;;79.85;;
21519;SDS011;10921;53.614;9.882;2024-03-22T08:46:49;136.55;;;81.07;;
21519;SDS011;10921;53.614;9.882;2024-03-22T08:49:15;136.07;;;81.28;;
21519;SDS011;10921;53.614;9.882;2024-03-22T08:51:41;131.57;;;80.45;;
21519;SDS011;10921;53.614;9.882;2024-03-22T08:54:06;141.13;;;83.30;;
21519;SDS011;10921;53.614;9.882;2024-03-22T08:56:32;135.70;;;84.38;;
21519;SDS011;10921;53.614;9.882;2024-03-22T08:58:58;140.48;;;83.72;;
21519;SDS011;10921;53.614;9.882;2024-03-22T09:01:24;130.18;;;81.75;;
21519;SDS011;10921;53.614;9.882;2024-03-22T09:03:50;128.07;;;81.80;;
21519;SDS011;10921;53.614;9.882;2024-03-22T09:06:16;140.75;;;86.65;;
21519;SDS011;10921;53.614;9.882;2024-03-22T09:08:42;148.95;;;89.53;;
21519;SDS011;10921;53.614;9.882;2024-03-22T09:11:07;145.07;;;87.28;;
21519;SDS011;10921;53.614;9.882;2024-03-22T09:13:33;138.77;;;85.07;;
21519;SDS011;10921;53.614;9.882;2024-03-22T09:16:00;143.82;;;85.25;;
21519;SDS011;10921;53.614;9.882;2024-03-22T09:18:27;143.90;;;87.50;;
21519;SDS011;10921;53.614;9.882;2024-03-22T09:20:53;137.90;;;85.60;;
21519;SDS011;10921;53.614;9.882;2024-03-22T09:23:19;146.00;;;88.45;;
21519;SDS011;10921;53.614;9.882;2024-03-22T09:25:45;136.23;;;84.05;;
21519;SDS011;10921;53.614;9.882;2024-03-22T09:28:12;127.18;;;80.70;;
21519;SDS011;10921;53.614;9.882;2024-03-22T09:30:39;137.35;;;88.15;;
21519;SDS011;10921;53.614;9.882;2024-03-22T09:33:08;131.95;;;83.80;;
21519;SDS011;10921;53.614;9.882;2024-03-22T09:35:34;135.10;;;83.57;;
21519;SDS011;10921;53.614;9.882;2024-03-22T09:38:00;137.07;;;86.97;;
21519;SDS011;10921;53.614;9.882;2024-03-22T09:40:26;138.52;;;84.20;;
21519;SDS011;10921;53.614;9.882;2024-03-22T09:42:52;135.57;;;83.63;;
21519;SDS011;10921;53.614;9.882;2024-03-22T09:45:18;140.35;;;86.78;;
21519;SDS011;10921;53.614;9.882;2024-03-22T09:47:48;128.05;;;80.30;;
21519;SDS011;10921;53.614;9.882;2024-03-22T09:50:15;130.27;;;80.80;;
21519;SDS011;10921;53.614;9.882;2024-03-22T09:52:41;119.80;;;77.60;;
21519;SDS011;10921;53.614;9.882;2024-03-22T09:55:07;117.00;;;75.75;;
21519;SDS011;10921;53.614;9.882;2024-03-22T09:57:34;114.78;;;75.53;;
21519;SDS011;10921;53.614;9.882;2024-03-22T10:00:05;115.53;;;74.13;;
21519;SDS011;10921;53.614;9.882;2024-03-22T10:02:32;108.13;;;70.73;;
21519;SDS011;10921;53.614;9.882;2024-03-22T10:04:58;111.05;;;70.30;;
21519;SDS011;10921;53.614;9.882;2024-03-22T10:07:24;97.45;;;65.10;;
21519;SDS011;10921;53.614;9.882;2024-03-22T10:09:57;94.05;;;62.60;;
21519;SDS011;10921;53.614;9.882;2024-03-22T10:12:23;96.35;;;64.57;;
21519;SDS011;10921;53.614;9.882;2024-03-22T10:14:52;94.82;;;61.17;;
21519;SDS011;10921;53.614;9.882;2024-03-22T10:17:18;87.93;;;57.10;;
21519;SDS011;10921;53.614;9.882;2024-03-22T10:19:44;84.38;;;54.88;;
21519;SDS011;10921;53.614;9.882;2024-03-22T10:22:09;77.63;;;51.42;;
21519;SDS011;10921;53.614;9.882;2024-03-22T10:24:35;76.63;;;51.65;;
21519;SDS011;10921;53.614;9.882;2024-03-22T10:27:01;78.25;;;52.72;;
21519;SDS011;10921;53.614;9.882;2024-03-22T10:29:26;69.60;;;48.97;;
21519;SDS011;10921;53.614;9.882;2024-03-22T10:31:53;70.47;;;49.17;;
21519;SDS011;10921;53.614;9.882;2024-03-22T10:34:20;68.60;;;49.55;;
21519;SDS011;10921;53.614;9.882;2024-03-22T10:36:46;73.07;;;51.03;;
21519;SDS011;10921;53.614;9.882;2024-03-22T10:39:13;70.25;;;51.47;;
21519;SDS011;10921;53.614;9.882;2024-03-22T10:41:43;73.95;;;50.35;;
21519;SDS011;10921;53.614;9.882;2024-03-22T10:44:13;70.28;;;51.10;;
21519;SDS011;10921;53.614;9.882;2024-03-22T10:46:40;63.65;;;49.42;;
21519;SDS011;10921;53.614;9.882;2024-03-22T10:49:14;60.53;;;48.55;;
21519;SDS011;10921;53.614;9.882;2024-03-22T10:51:49;57.45;;;46.65;;
21519;SDS011;10921;53.614;9.882;2024-03-22T10:54:21;60.53;;;47.90;;
21519;SDS011;10921;53.614;9.882;2024-03-22T10:56:54;58.83;;;47.67;;
21519;SDS011;10921;53.614;9.882;2024-03-22T10:59:22;59.17;;;48.13;;
21519;SDS011;10921;53.614;9.882;2024-03-22T11:01:48;58.30;;;46.55;;
21519;SDS011;10921;53.614;9.882;2024-03-22T11:04:19;57.88;;;46.60;;
21519;SDS011;10921;53.614;9.882;2024-03-22T11:06:48;52.85;;;43.70;;
21519;SDS011;10921;53.614;9.882;2024-03-22T11:12:20;66.90;;;59.67;;
21519;SDS011;10921;53.614;9.882;2024-03-22T11:14:45;64.38;;;57.53;;
21519;SDS011;10921;53.614;9.882;2024-03-22T11:17:12;49.58;;;43.80;;
21519;SDS011;10921;53.614;9.882;2024-03-22T11:19:38;48.28;;;42.67;;
21519;SDS011;10921;53.614;9.882;2024-03-22T11:22:06;49.35;;;44.15;;
21519;SDS011;10921;53.614;9.882;2024-03-22T11:24:33;48.05;;;42.55;;
21519;SDS011;10921;53.614;9.882;2024-03-22T11:26:58;49.33;;;41.90;;
21519;SDS011;10921;53.614;9.882;2024-03-22T11:29:24;46.53;;;40.70;;
21519;SDS011;10921;53.614;9.882;2024-03-22T11:31:50;45.00;;;39.78;;
21519;SDS011;10921;53.614;9.882;2024-03-22T11:34:15;42.97;;;38.25;;
21519;SDS011;10921;53.614;9.882;2024-03-22T11:36:41;41.70;;;37.25;;
21519;SDS011;10921;53.614;9.882;2024-03-22T11:39:07;39.90;;;35.40;;
21519;SDS011;10921;53.614;9.882;2024-03-22T11:41:32;39.30;;;35.05;;
21519;SDS011;10921;53.614;9.882;2024-03-22T11:43:59;36.90;;;32.85;;
21519;SDS011;10921;53.614;9.882;2024-03-22T11:46:25;34.47;;;30.88;;
21519;SDS011;10921;53.614;9.882;2024-03-22T11:48:53;33.33;;;29.73;;
21519;SDS011;10921;53.614;9.882;2024-03-22T11:51:18;36.45;;;29.05;;
21519;SDS011;10921;53.614;9.882;2024-03-22T11:53:51;29.80;;;26.38;;
21519;SDS011;10921;53.614;9.882;2024-03-22T11:56:18;29.13;;;26.23;;
21519;SDS011;10921;53.614;9.882;2024-03-22T11:58:48;27.13;;;24.33;;
21519;SDS011;10921;53.614;9.882;2024-03-22T12:01:15;26.53;;;23.73;;
21519;SDS011;10921;53.614;9.882;2024-03-22T12:03:43;25.67;;;23.08;;
21519;SDS011;10921;53.614;9.882;2024-03-22T12:06:09;25.58;;;22.88;;
21519;SDS011;10921;53.614;9.882;2024-03-22T12:08:38;24.40;;;22.02;;
21519;SDS011;10921;53.614;9.882;2024-03-22T12:11:09;24.20;;;21.70;;
21519;SDS011;10921;53.614;9.882;2024-03-22T12:13:35;22.65;;;20.45;;
21519;SDS011;10921;53.614;9.882;2024-03-22T12:16:03;21.95;;;19.92;;
21519;SDS011;10921;53.614;9.882;2024-03-22T12:18:29;21.63;;;19.38;;
21519;SDS011;10921;53.614;9.882;2024-03-22T12:20:55;21.02;;;18.95;;
21519;SDS011;10921;53.614;9.882;2024-03-22T12:23:20;20.23;;;18.35;;
21519;SDS011;10921;53.614;9.882;2024-03-22T12:25:46;21.05;;;19.08;;
21519;SDS011;10921;53.614;9.882;2024-03-22T12:28:12;21.27;;;19.25;;
21519;SDS011;10921;53.614;9.882;2024-03-22T12:30:37;23.20;;;20.98;;
21519;SDS011;10921;53.614;9.882;2024-03-22T12:33:03;22.90;;;20.60;;
21519;SDS011;10921;53.614;9.882;2024-03-22T12:35:28;27.20;;;24.80;;
21519;SDS011;10921;53.614;9.882;2024-03-22T12:37:58;31.30;;;28.67;;
21519;SDS011;10921;53.614;9.882;2024-03-22T12:40:23;33.08;;;30.27;;
21519;SDS011;10921;53.614;9.882;2024-03-22T12:42:49;31.67;;;28.98;;
21519;SDS011;10921;53.614;9.882;2024-03-22T12:45:14;31.35;;;28.80;;
21519;SDS011;10921;53.614;9.882;2024-03-22T12:47:40;31.63;;;29.02;;
21519;SDS011;10921;53.614;9.882;2024-03-22T12:50:05;30.52;;;27.92;;
21519;SDS011;10921;53.614;9.882;2024-03-22T12:52:31;30.38;;;27.92;;
21519;SDS011;10921;53.614;9.882;2024-03-22T12:54:57;29.90;;;27.40;;
21519;SDS011;10921;53.614;9.882;2024-03-22T12:57:22;30.13;;;27.60;;
21519;SDS011;10921;53.614;9.882;2024-03-22T12:59:48;29.40;;;27.02;;
21519;SDS011;10921;53.614;9.882;2024-03-22T13:02:13;29.10;;;26.77;;
21519;SDS011;10921;53.614;9.882;2024-03-22T13:04:39;29.13;;;26.73;;
21519;SDS011;10921;53.614;9.882;2024-03-22T13:07:04;28.95;;;26.55;;
21519;SDS011;10921;53.614;9.882;2024-03-22T13:09:30;28.90;;;26.48;;
21519;SDS011;10921;53.614;9.882;2024-03-22T13:11:56;29.95;;;27.45;;
21519;SDS011;10921;53.614;9.882;2024-03-22T13:14:21;28.85;;;26.48;;
21519;SDS011;10921;53.614;9.882;2024-03-22T13:16:47;29.52;;;27.05;;
21519;SDS011;10921;53.614;9.882;2024-03-22T13:19:12;29.60;;;27.10;;
21519;SDS011;10921;53.614;9.882;2024-03-22T13:21:40;28.83;;;26.45;;
21519;SDS011;10921;53.614;9.882;2024-03-22T13:24:05;28.73;;;26.33;;
21519;SDS011;10921;53.614;9.882;2024-03-22T13:26:31;28.77;;;26.38;;
21519;SDS011;10921;53.614;9.882;2024-03-22T13:28:57;28.52;;;26.23;;
21519;SDS011;10921;53.614;9.882;2024-03-22T13:31:22;28.17;;;25.88;;
21519;SDS011;10921;53.614;9.882;2024-03-22T13:33:48;28.88;;;26.27;;
21519;SDS011;10921;53.614;9.882;2024-03-22T13:36:14;29.02;;;26.52;;
21519;SDS011;10921;53.614;9.882;2024-03-22T13:38:39;27.90;;;25.60;;
21519;SDS011;10921;53.614;9.882;2024-03-22T13:41:05;28.60;;;26.35;;
21519;SDS011;10921;53.614;9.882;2024-03-22T13:43:31;29.30;;;26.80;;
21519;SDS011;10921;53.614;9.882;2024-03-22T13:45:57;27.88;;;25.67;;
21519;SDS011;10921;53.614;9.882;2024-03-22T13:48:23;28.15;;;25.75;;
21519;SDS011;10921;53.614;9.882;2024-03-22T13:50:51;26.52;;;24.50;;
21519;SDS011;10921;53.614;9.882;2024-03-22T13:53:18;27.15;;;24.95;;
21519;SDS011;10921;53.614;9.882;2024-03-22T13:55:44;26.33;;;24.40;;
21519;SDS011;10921;53.614;9.882;2024-03-22T13:58:11;26.50;;;24.40;;
21519;SDS011;10921;53.614;9.882;2024-03-22T14:00:37;25.92;;;23.92;;
21519;SDS011;10921;53.614;9.882;2024-03-22T14:03:03;25.00;;;23.15;;
21519;SDS011;10921;53.614;9.882;2024-03-22T14:05:29;23.35;;;21.65;;
21519;SDS011;10921;53.614;9.882;2024-03-22T14:07:54;22.98;;;21.33;;
21519;SDS011;10921;53.614;9.882;2024-03-22T14:10:20;22.30;;;20.70;;
21519;SDS011;10921;53.614;9.882;2024-03-22T14:12:46;23.13;;;21.38;;
21519;SDS011;10921;53.614;9.882;2024-03-22T14:15:12;22.27;;;20.70;;